Time;durP1;ratioP1;P1;durP2;ratioP2;P2;SDS_P1;SDS_P2;PMS_P1;PMS_P2;Temp;Humidity;BMP_temperature;BMP_pressure;BME280_temperature;BME280_humidity;BME280_pressure;Samples;Min_cycle;Max_cycle;Signal;HPM_P1;HPM_P2
2023/03/20 00:01:58;;;;;;;10.00;6.22;;;12.30;85.60;;;;;;4982405;28;20081;-80
2023/03/20 00:04:24;;;;;;;10.13;6.47;;;12.30;85.60;;;;;;5000533;28;20854;-78
2023/03/20 00:06:50;;;;;;;9.57;6.32;;;12.30;85.60;;;;;;4982370;28;20532;-79
2023/03/20 00:09:16;;;;;;;9.65;6.25;;;12.30;85.60;;;;;;4982347;28;20022;-79
2023/03/20 00:11:52;;;;;;;8.50;5.80;;;12.30;85.60;;;;;;4982005;28;20031;-79
2023/03/20 00:14:21;;;;;;;9.88;6.55;;;12.30;85.60;;;;;;4982685;28;20022;-79
2023/03/20 00:16:48;;;;;;;9.98;6.35;;;12.30;85.60;;;;;;4981470;28;20025;-79
2023/03/20 00:19:19;;;;;;;11.02;6.38;;;12.30;85.70;;;;;;4999087;28;20036;-79
2023/03/20 00:21:46;;;;;;;9.35;6.00;;;12.30;85.70;;;;;;4981314;28;20145;-79
2023/03/20 00:24:13;;;;;;;10.25;6.22;;;12.30;85.70;;;;;;4980910;28;20102;-79
2023/03/20 00:26:39;;;;;;;10.05;6.40;;;12.30;85.70;;;;;;4998907;28;20039;-79
2023/03/20 00:29:06;;;;;;;10.00;6.22;;;12.20;85.60;;;;;;4998379;28;20026;-79
2023/03/20 00:31:33;;;;;;;9.65;6.45;;;12.20;85.60;;;;;;4980765;28;20511;-79
2023/03/20 00:34:01;;;;;;;10.05;6.32;;;12.20;85.70;;;;;;4979979;28;20041;-79
2023/03/20 00:36:27;;;;;;;9.18;5.93;;;12.20;85.60;;;;;;4997778;28;20038;-78
2023/03/20 00:38:53;;;;;;;10.52;6.22;;;12.20;85.60;;;;;;4997446;28;20034;-78
2023/03/20 00:41:31;;;;;;;10.13;6.30;;;12.20;85.70;;;;;;4997500;28;20025;-79
2023/03/20 00:44:06;;;;;;;10.23;6.70;;;12.30;85.70;;;;;;4997657;28;20049;-79
2023/03/20 00:46:38;;;;;;;9.75;6.35;;;12.20;85.60;;;;;;4997003;28;20022;-78
2023/03/20 00:49:04;;;;;;;9.73;5.93;;;12.30;85.70;;;;;;4999570;28;20042;-78
2023/03/20 00:51:29;;;;;;;9.07;5.88;;;12.30;85.70;;;;;;4999735;28;20027;-79
2023/03/20 00:53:55;;;;;;;9.75;6.15;;;12.30;85.70;;;;;;4982249;28;20408;-79
2023/03/20 00:56:37;;;;;;;10.27;6.28;;;12.20;85.60;;;;;;4981470;28;20023;-78
2023/03/20 00:59:03;;;;;;;9.35;6.10;;;12.20;85.60;;;;;;4981290;28;20104;-78
2023/03/20 01:01:30;;;;;;;9.23;6.03;;;12.30;85.70;;;;;;4998248;28;20536;-79
2023/03/20 01:03:57;;;;;;;10.05;6.30;;;12.20;85.60;;;;;;4998525;28;20018;-79
2023/03/20 01:06:22;;;;;;;10.55;6.25;;;12.20;85.60;;;;;;4998560;28;20441;-79
2023/03/20 01:08:48;;;;;;;10.23;6.22;;;12.20;85.70;;;;;;4980757;28;20022;-79
2023/03/20 01:11:18;;;;;;;10.68;6.70;;;12.20;85.60;;;;;;4997670;28;20068;-78
2023/03/20 01:13:43;;;;;;;10.02;6.05;;;12.20;85.70;;;;;;4980499;28;20022;-79
2023/03/20 01:16:22;;;;;;;10.50;6.63;;;12.20;85.70;;;;;;4980198;28;20034;-78
2023/03/20 01:18:48;;;;;;;10.40;6.50;;;12.20;85.70;;;;;;4997519;28;20034;-78
2023/03/20 01:21:14;;;;;;;9.88;6.70;;;12.20;85.70;;;;;;4997379;28;20030;-77
2023/03/20 01:23:39;;;;;;;9.95;6.38;;;12.20;85.70;;;;;;4997086;28;20035;-78
2023/03/20 01:26:21;;;;;;;10.13;6.60;;;12.20;85.70;;;;;;4979373;28;20030;-79
2023/03/20 01:28:48;;;;;;;11.27;6.82;;;12.20;85.70;;;;;;4977552;28;20050;-78
2023/03/20 01:31:16;;;;;;;11.30;6.32;;;12.20;85.70;;;;;;4993980;28;20042;-76
2023/03/20 01:33:41;;;;;;;10.65;6.13;;;12.20;85.70;;;;;;4978443;28;20509;-79
2023/03/20 01:36:15;;;;;;;10.38;6.63;;;12.30;85.70;;;;;;4978547;28;20082;-79
2023/03/20 01:38:41;;;;;;;10.55;6.70;;;12.20;85.70;;;;;;4996294;28;20037;-79
2023/03/20 01:41:15;;;;;;;10.32;6.68;;;12.20;85.70;;;;;;4995693;28;20030;-78
2023/03/20 01:43:41;;;;;;;10.40;6.50;;;12.20;85.60;;;;;;4994625;28;20022;-78
2023/03/20 01:46:37;;;;;;;11.18;7.25;;;12.20;85.70;;;;;;4993250;28;20022;-78
2023/03/20 01:49:27;;;;;;;10.05;6.60;;;12.20;85.70;;;;;;4977472;28;20066;-77
2023/03/20 01:51:55;;;;;;;11.13;6.85;;;12.20;85.70;;;;;;4992749;28;20029;-79
2023/03/20 01:54:29;;;;;;;10.30;5.90;;;12.20;85.70;;;;;;4973057;28;20026;-78
2023/03/20 01:57:09;;;;;;;11.30;6.60;;;12.20;85.70;;;;;;4958215;28;20130;-78
2023/03/20 01:59:39;;;;;;;12.35;6.82;;;12.20;85.70;;;;;;4957209;28;20061;-77
2023/03/20 02:02:07;;;;;;;9.67;6.33;;;12.20;85.70;;;;;;4973545;28;20026;-78
2023/03/20 02:04:37;;;;;;;10.18;6.35;;;12.20;85.70;;;;;;4958896;28;20027;-78
2023/03/20 02:07:06;;;;;;;10.88;6.53;;;12.20;85.70;;;;;;4961505;28;20027;-79
2023/03/20 02:09:31;;;;;;;10.85;6.47;;;12.20;85.70;;;;;;4978896;28;20489;-78
2023/03/20 02:11:58;;;;;;;10.27;6.70;;;12.20;85.70;;;;;;4961396;28;20026;-79
2023/03/20 02:14:25;;;;;;;10.73;6.38;;;12.20;85.70;;;;;;4978710;28;20098;-78
2023/03/20 02:16:51;;;;;;;10.20;6.25;;;12.20;85.70;;;;;;4959776;28;20034;-78
2023/03/20 02:19:30;;;;;;;11.27;6.30;;;12.30;85.70;;;;;;4959619;28;20031;-78
2023/03/20 02:22:26;;;;;;;10.25;6.65;;;12.20;85.70;;;;;;4960846;28;20416;-78
2023/03/20 02:25:30;;;;;;;9.23;6.13;;;12.20;85.70;;;;;;4960873;28;20055;-79
2023/03/20 02:28:41;;;;;;;10.73;6.45;;;12.20;85.70;;;;;;4960527;28;20034;-78
2023/03/20 02:31:41;;;;;;;11.18;6.82;;;12.20;85.70;;;;;;4960047;28;20050;-77
2023/03/20 02:34:40;;;;;;;10.18;6.70;;;12.20;85.70;;;;;;4960462;28;20038;-78
2023/03/20 02:37:24;;;;;;;10.57;6.53;;;12.20;85.70;;;;;;4960251;28;20031;-79
2023/03/20 02:40:04;;;;;;;11.32;6.95;;;12.30;85.80;;;;;;4977437;28;20049;-78
2023/03/20 02:43:01;;;;;;;11.43;7.20;;;12.20;85.70;;;;;;4976104;28;20023;-78
2023/03/20 02:45:35;;;;;;;11.68;7.18;;;12.20;86.20;;;;;;4959838;28;20117;-79
2023/03/20 02:48:40;;;;;;;10.77;6.32;;;12.20;85.70;;;;;;4959500;28;20041;-78
2023/03/20 02:51:44;;;;;;;9.80;6.13;;;12.20;85.70;;;;;;4930526;28;20049;-79
2023/03/20 02:54:27;;;;;;;10.60;6.40;;;12.20;85.70;;;;;;4958587;28;20019;-78
2023/03/20 02:57:10;;;;;;;10.60;6.45;;;12.20;85.70;;;;;;4957969;28;20190;-78
2023/03/20 02:59:58;;;;;;;11.35;7.03;;;12.20;85.70;;;;;;4976111;28;20035;-78
2023/03/20 03:02:33;;;;;;;10.68;6.70;;;12.20;85.70;;;;;;4975748;28;20023;-79
2023/03/20 03:05:05;;;;;;;12.32;6.72;;;12.20;85.70;;;;;;4958463;28;20082;-79
2023/03/20 03:07:34;;;;;;;11.50;7.05;;;12.20;85.70;;;;;;4958702;28;20168;-78
2023/03/20 03:10:03;;;;;;;10.45;6.40;;;12.20;85.70;;;;;;4958491;28;20034;-78
2023/03/20 03:12:36;;;;;;;10.18;6.25;;;12.20;85.70;;;;;;4958370;28;20034;-78
2023/03/20 03:15:27;;;;;;;10.60;6.60;;;12.20;85.70;;;;;;4958320;28;20027;-78
2023/03/20 03:17:55;;;;;;;11.35;7.03;;;12.20;85.70;;;;;;4949700;28;20153;-78
2023/03/20 03:20:33;;;;;;;11.30;7.05;;;12.20;85.80;;;;;;4958211;28;20019;-78
2023/03/20 03:22:59;;;;;;;11.65;6.95;;;12.20;85.80;;;;;;4975504;28;20026;-78
2023/03/20 03:25:32;;;;;;;10.73;6.60;;;12.20;85.80;;;;;;4960437;28;20035;-79
2023/03/20 03:28:18;;;;;;;11.88;7.40;;;12.20;85.80;;;;;;4982206;28;20449;-79
2023/03/20 03:30:44;;;;;;;11.48;6.80;;;12.20;85.80;;;;;;4963623;28;20062;-78
2023/03/20 03:33:15;;;;;;;10.45;6.57;;;12.20;85.80;;;;;;4964446;28;20030;-78
2023/03/20 03:35:41;;;;;;;11.73;6.90;;;12.20;85.80;;;;;;4980679;28;20105;-78
2023/03/20 03:38:29;;;;;;;10.57;6.70;;;12.20;85.80;;;;;;4981139;28;20516;-78
2023/03/20 03:41:41;;;;;;;12.63;7.25;;;12.20;85.80;;;;;;4980985;28;20127;-78
2023/03/20 03:44:14;;;;;;;11.85;7.07;;;12.20;85.80;;;;;;4950787;28;20090;-79
2023/03/20 03:46:45;;;;;;;11.90;7.55;;;12.20;85.80;;;;;;4995216;28;20030;-78
2023/03/20 03:49:16;;;;;;;11.27;7.15;;;12.20;85.80;;;;;;4978492;28;20031;-78
2023/03/20 03:51:45;;;;;;;13.30;7.57;;;12.20;85.80;;;;;;4979609;28;20026;-78
2023/03/20 03:54:28;;;;;;;11.77;7.30;;;12.20;85.80;;;;;;4977186;28;20090;-79
2023/03/20 03:56:56;;;;;;;11.60;7.13;;;12.20;85.80;;;;;;4976019;28;20098;-78
2023/03/20 03:59:35;;;;;;;12.02;7.22;;;12.20;85.80;;;;;;5023722;23;20042;-80
2023/03/20 04:02:03;;;;;;;13.05;8.00;;;12.20;85.80;;;;;;4995914;28;20022;-82
2023/03/20 04:04:30;;;;;;;12.32;7.32;;;12.20;85.80;;;;;;5014024;28;20075;-81
2023/03/20 04:06:56;;;;;;;11.88;7.40;;;12.20;85.80;;;;;;4996374;28;20056;-82
2023/03/20 04:09:22;;;;;;;12.88;7.80;;;12.20;85.90;;;;;;4996151;28;20084;-82
2023/03/20 04:11:50;;;;;;;11.13;7.05;;;12.20;85.80;;;;;;4996140;28;20563;-82
2023/03/20 04:14:16;;;;;;;12.02;7.45;;;12.20;85.90;;;;;;4996258;28;20492;-82
2023/03/20 04:16:41;;;;;;;12.00;7.82;;;12.20;85.80;;;;;;5013778;28;20026;-82
2023/03/20 04:19:07;;;;;;;12.45;7.60;;;12.20;85.80;;;;;;5012391;28;20034;-83
2023/03/20 04:21:32;;;;;;;11.00;7.13;;;12.20;85.80;;;;;;4996121;28;20021;-83
2023/03/20 04:23:58;;;;;;;12.40;7.53;;;12.20;85.80;;;;;;4996074;28;20068;-84
2023/03/20 04:26:23;;;;;;;11.50;7.25;;;12.20;85.80;;;;;;5011293;28;20466;-84
2023/03/20 06:59:08;;;;;;;15.07;8.43;;;12.20;85.80;;;;;;4998208;28;20058;-80
2023/03/20 07:01:53;;;;;;;15.27;7.82;;;12.20;85.70;;;;;;4978244;28;20228;-81
2023/03/20 07:04:19;;;;;;;13.82;8.50;;;12.20;85.70;;;;;;4984189;28;20035;-81
2023/03/20 07:06:45;;;;;;;14.02;8.57;;;12.20;85.70;;;;;;4984388;28;20011;-80
2023/03/20 07:09:11;;;;;;;14.02;8.65;;;12.20;85.70;;;;;;4984071;28;20011;-81
2023/03/20 07:11:36;;;;;;;12.18;7.95;;;12.20;85.70;;;;;;4984384;28;20022;-84
2023/03/20 07:14:05;;;;;;;13.77;8.13;;;12.10;85.60;;;;;;4997968;28;20039;-80
2023/03/20 07:16:41;;;;;;;14.05;8.40;;;13.70;86.50;;;;;;5001123;28;20015;-81
2023/03/20 07:19:36;;;;;;;12.52;7.70;;;12.30;85.80;;;;;;4983111;28;20034;-81
2023/03/20 07:22:06;;;;;;;14.07;8.32;;;12.20;85.70;;;;;;4983398;28;20034;-80
2023/03/20 07:24:34;;;;;;;13.85;8.75;;;12.20;85.70;;;;;;4983793;28;20039;-81
2023/03/20 07:27:00;;;;;;;14.23;8.57;;;12.20;85.70;;;;;;4984425;28;20091;-81
2023/03/20 07:29:26;;;;;;;13.70;8.45;;;12.30;85.70;;;;;;4983684;28;20054;-81
2023/03/20 07:31:52;;;;;;;12.90;7.68;;;12.40;85.80;;;;;;5000344;28;20007;-81
2023/03/20 07:34:18;;;;;;;12.77;8.35;;;12.20;85.70;;;;;;4983600;28;20017;-80
2023/03/20 07:36:44;;;;;;;14.90;8.73;;;12.20;85.60;;;;;;4983548;28;20034;-81
2023/03/20 07:39:29;;;;;;;11.90;7.95;;;12.30;85.70;;;;;;4983109;28;20034;-81
2023/03/20 07:41:55;;;;;;;13.75;8.20;;;12.40;85.70;;;;;;4983594;28;20011;-81
2023/03/20 07:44:30;;;;;;;12.98;7.85;;;12.30;85.70;;;;;;4983274;28;20110;-81
2023/03/20 07:46:56;;;;;;;12.57;7.57;;;12.30;85.70;;;;;;4983715;28;20011;-81
2023/03/20 07:49:22;;;;;;;14.27;8.57;;;12.30;85.60;;;;;;4983373;28;20078;-80
2023/03/20 07:51:55;;;;;;;13.63;7.90;;;12.20;85.60;;;;;;4983328;28;20018;-81
2023/03/20 07:54:21;;;;;;;14.43;8.40;;;12.20;85.60;;;;;;4983498;28;20015;-80
2023/03/20 07:56:48;;;;;;;13.82;7.97;;;12.20;85.50;;;;;;4982490;28;20054;-84
2023/03/20 07:59:15;;;;;;;14.13;8.05;;;12.20;85.60;;;;;;4982769;28;20086;-81
2023/03/20 08:02:30;;;;;;;13.00;7.55;;;12.50;85.70;;;;;;4959080;28;20043;-80
2023/03/20 08:04:56;;;;;;;13.07;7.63;;;12.30;85.60;;;;;;4978240;28;20019;-80
2023/03/20 08:07:21;;;;;;;14.30;8.05;;;12.30;85.60;;;;;;4982933;28;20022;-81
2023/03/20 08:09:51;;;;;;;13.93;8.45;;;12.30;85.50;;;;;;4982522;28;20022;-81
2023/03/20 08:12:18;;;;;;;11.77;7.90;;;12.30;85.50;;;;;;4999919;28;20014;-81
2023/03/20 08:14:44;;;;;;;13.27;8.45;;;12.30;85.40;;;;;;4983464;28;20022;-81
2023/03/20 08:17:13;;;;;;;12.15;7.68;;;12.30;85.40;;;;;;4999639;28;20031;-82
2023/03/20 08:20:05;;;;;;;11.68;7.25;;;12.30;85.40;;;;;;4996589;28;20037;-81
2023/03/20 08:22:59;;;;;;;12.80;7.95;;;12.20;85.40;;;;;;4985935;28;20011;-81
2023/03/20 08:25:25;;;;;;;12.57;7.75;;;12.30;85.40;;;;;;4983161;28;20031;-81
2023/03/20 08:27:50;;;;;;;11.80;7.03;;;12.30;85.40;;;;;;4966870;28;20082;-80
2023/03/20 08:30:17;;;;;;;12.25;7.53;;;12.40;85.40;;;;;;4999129;28;20031;-82
2023/03/20 08:33:02;;;;;;;12.02;7.53;;;12.40;85.40;;;;;;4959955;28;20019;-82
2023/03/20 08:36:01;;;;;;;11.88;7.40;;;12.30;85.30;;;;;;4940809;29;20068;-80
2023/03/20 08:38:30;;;;;;;11.27;7.10;;;12.40;85.40;;;;;;4959888;28;20077;-81
2023/03/20 08:40:55;;;;;;;11.43;7.10;;;12.50;85.40;;;;;;4943986;28;20012;-81
2023/03/20 08:43:36;;;;;;;10.13;6.45;;;12.70;85.60;;;;;;4993306;28;20043;-81
2023/03/20 08:46:03;;;;;;;10.70;7.07;;;12.30;85.30;;;;;;4999319;28;20058;-81
2023/03/20 08:48:29;;;;;;;11.43;7.13;;;12.30;85.20;;;;;;4981814;28;20026;-81
2023/03/20 08:50:57;;;;;;;10.30;6.50;;;12.40;85.30;;;;;;4982577;28;20011;-81
2023/03/20 08:53:42;;;;;;;10.95;6.80;;;12.60;85.30;;;;;;4982685;28;20034;-81
2023/03/20 08:56:08;;;;;;;10.60;6.65;;;12.40;85.20;;;;;;4982396;28;20015;-80
2023/03/20 08:58:35;;;;;;;11.98;7.15;;;12.40;85.10;;;;;;4982340;28;20033;-83
2023/03/20 09:01:30;;;;;;;10.20;6.72;;;12.40;85.10;;;;;;4996798;28;20890;-81
2023/03/20 09:04:24;;;;;;;11.43;6.63;;;12.60;85.10;;;;;;4940488;29;20079;-82
2023/03/20 09:07:29;;;;;;;9.98;6.20;;;12.40;85.00;;;;;;4938445;29;20031;-82
2023/03/20 09:10:23;;;;;;;10.48;6.38;;;12.40;85.00;;;;;;4887314;29;20025;-81
2023/03/20 09:12:55;;;;;;;10.68;6.68;;;12.40;85.00;;;;;;4903136;29;20132;-81
2023/03/20 09:15:42;;;;;;;9.93;6.38;;;12.40;84.90;;;;;;4918752;29;20024;-81
2023/03/20 09:18:16;;;;;;;10.60;6.18;;;12.30;84.90;;;;;;4945865;28;20028;-80
2023/03/20 09:20:42;;;;;;;10.50;6.47;;;12.50;84.90;;;;;;4982161;28;20017;-81
2023/03/20 09:23:13;;;;;;;10.32;5.88;;;12.40;84.80;;;;;;4982519;28;20034;-82
2023/03/20 09:25:42;;;;;;;10.13;6.63;;;12.40;84.80;;;;;;4977282;28;20015;-81
2023/03/20 09:28:37;;;;;;;9.95;6.35;;;12.70;85.00;;;;;;4995524;28;20062;-82
2023/03/20 09:31:05;;;;;;;10.38;6.50;;;12.50;84.80;;;;;;4969355;28;20096;-81
2023/03/20 09:34:05;;;;;;;10.10;6.35;;;12.40;84.80;;;;;;4998270;28;20042;-83
2023/03/20 09:36:54;;;;;;;10.55;6.70;;;12.50;84.80;;;;;;4982035;28;20003;-81
2023/03/20 09:40:05;;;;;;;9.93;6.38;;;12.50;84.80;;;;;;4987974;28;20027;-81
2023/03/20 09:46:03;;;;;;;9.05;5.82;;;12.50;84.80;;;;;;4999235;28;20022;-82
2023/03/20 09:49:29;;;;;;;10.57;6.45;;;12.60;84.90;;;;;;4981801;28;20011;-80
2023/03/20 09:51:59;;;;;;;10.63;6.30;;;12.40;84.80;;;;;;4940040;29;20041;-81
2023/03/20 09:55:11;;;;;;;9.52;5.78;;;12.50;84.80;;;;;;4997749;28;20054;-81
2023/03/20 09:58:23;;;;;;;9.50;5.90;;;12.40;84.70;;;;;;4998274;28;20019;-81
2023/03/20 10:00:48;;;;;;;9.90;5.63;;;12.50;84.80;;;;;;4987184;23;20047;-79
2023/03/20 10:03:26;;;;;;;8.65;5.65;;;12.50;84.80;;;;;;4955695;28;20034;-78
2023/03/20 10:06:00;;;;;;;8.23;5.10;;;12.50;84.80;;;;;;4955496;28;20061;-78
2023/03/20 10:08:31;;;;;;;9.43;5.82;;;12.50;84.80;;;;;;4955572;28;20070;-79
2023/03/20 10:11:26;;;;;;;9.90;6.30;;;12.50;84.80;;;;;;4968870;28;20023;-78
2023/03/20 10:14:13;;;;;;;8.80;5.60;;;12.50;84.80;;;;;;4961383;28;20030;-79
2023/03/20 10:16:45;;;;;;;9.35;5.75;;;12.50;84.80;;;;;;4955687;28;20085;-78
2023/03/20 10:19:26;;;;;;;9.65;5.95;;;12.50;84.80;;;;;;4971378;28;20030;-78
2023/03/20 10:21:54;;;;;;;;;;;12.50;84.80;;;;;;4973307;28;20054;-79
2023/03/20 10:24:54;;;;;;;8.40;5.40;;;12.50;84.70;;;;;;4971477;28;19929;-78
2023/03/20 10:27:26;;;;;;;8.55;5.13;;;12.50;84.70;;;;;;4975539;28;20054;-79
2023/03/20 10:30:10;;;;;;;9.00;5.55;;;12.50;84.70;;;;;;4981776;28;20044;-79
2023/03/20 10:33:02;;;;;;;8.93;5.60;;;12.50;84.70;;;;;;4964255;28;20023;-79
2023/03/20 10:36:08;;;;;;;7.88;5.13;;;12.50;84.60;;;;;;4981645;28;20026;-79
2023/03/20 10:38:47;;;;;;;9.15;5.10;;;12.50;84.60;;;;;;4980564;28;20027;-79
2023/03/20 10:41:20;;;;;;;9.05;5.60;;;12.50;84.50;;;;;;4979670;28;20049;-79
2023/03/20 10:43:48;;;;;;;8.20;5.13;;;12.60;84.50;;;;;;4980312;28;20122;-79
2023/03/20 10:46:19;;;;;;;8.93;5.78;;;12.60;84.50;;;;;;4980454;28;20054;-79
2023/03/20 10:48:48;;;;;;;8.18;4.93;;;12.60;84.40;;;;;;4979700;28;20035;-79
2023/03/20 10:51:16;;;;;;;8.48;5.15;;;12.60;84.40;;;;;;4979352;28;20501;-79
2023/03/20 10:53:47;;;;;;;8.98;4.78;;;12.60;84.30;;;;;;4979859;28;20552;-79
2023/03/20 10:56:35;;;;;;;7.85;4.70;;;12.60;84.30;;;;;;4979457;28;20026;-79
2023/03/20 10:59:07;;;;;;;8.57;5.53;;;12.70;84.10;;;;;;4978727;28;20395;-78
2023/03/20 11:01:32;;;;;;;8.00;4.80;;;12.70;84.10;;;;;;4977052;28;20088;-79
2023/03/20 11:03:58;;;;;;;8.25;5.00;;;12.70;84.00;;;;;;4977935;28;20023;-79
2023/03/20 11:06:27;;;;;;;7.40;4.50;;;12.70;84.00;;;;;;4978778;28;20106;-79
2023/03/20 11:08:53;;;;;;;8.32;5.00;;;12.70;83.90;;;;;;4977106;28;20543;-79
2023/03/20 11:11:29;;;;;;;8.20;4.60;;;12.70;83.90;;;;;;4977480;28;20034;-78
2023/03/20 11:13:55;;;;;;;8.43;5.10;;;12.70;83.90;;;;;;4977901;28;20481;-79
2023/03/20 11:16:29;;;;;;;8.43;5.03;;;12.70;83.90;;;;;;4960192;28;20041;-79
2023/03/20 11:19:02;;;;;;;7.10;4.55;;;12.70;83.90;;;;;;4977924;28;20085;-79
2023/03/20 11:21:30;;;;;;;7.50;4.43;;;12.70;84.00;;;;;;4980254;28;20050;-79
2023/03/20 11:23:56;;;;;;;7.47;4.50;;;12.70;83.90;;;;;;4978474;28;20056;-79
2023/03/20 11:26:38;;;;;;;8.45;4.75;;;12.70;83.90;;;;;;4980728;28;20405;-79
2023/03/20 11:29:29;;;;;;;7.10;4.38;;;12.70;83.80;;;;;;4979483;28;20458;-79
2023/03/20 11:32:12;;;;;;;7.10;4.53;;;12.80;83.80;;;;;;4977436;28;20041;-79
2023/03/20 11:34:39;;;;;;;8.55;4.68;;;12.80;83.80;;;;;;4979289;28;20027;-79
2023/03/20 11:37:17;;;;;;;7.28;4.30;;;12.80;83.70;;;;;;4961441;28;20031;-79
2023/03/20 11:39:57;;;;;;;7.00;4.45;;;12.80;83.70;;;;;;4978564;28;20034;-79
2023/03/20 11:42:26;;;;;;;7.82;4.30;;;12.80;83.70;;;;;;4977079;28;20110;-78
2023/03/20 11:45:01;;;;;;;7.57;4.38;;;12.70;83.70;;;;;;4977349;28;20031;-79
2023/03/20 11:47:30;;;;;;;7.25;4.18;;;12.70;83.70;;;;;;4976903;28;20058;-79
2023/03/20 11:49:59;;;;;;;8.15;4.55;;;12.70;83.80;;;;;;4976520;28;20169;-79
2023/03/20 11:52:37;;;;;;;7.80;4.40;;;12.70;83.80;;;;;;4977464;28;20022;-79
2023/03/20 11:55:23;;;;;;;7.95;4.38;;;12.70;83.70;;;;;;4976145;28;20023;-79
2023/03/20 11:57:49;;;;;;;7.18;4.10;;;12.70;83.80;;;;;;4976790;28;20030;-78
2023/03/20 12:00:22;;;;;;;6.65;3.88;;;12.70;83.80;;;;;;4975530;28;20031;-79
2023/03/20 12:02:48;;;;;;;6.45;3.53;;;12.70;83.70;;;;;;4977337;28;20023;-79
2023/03/20 12:05:41;;;;;;;6.85;3.95;;;12.70;83.80;;;;;;4975770;28;20050;-79
2023/03/20 12:08:16;;;;;;;7.05;3.75;;;12.70;83.70;;;;;;4977056;28;20019;-79
2023/03/20 12:10:48;;;;;;;6.35;3.78;;;12.80;83.70;;;;;;4976204;28;20057;-78
2023/03/20 12:13:23;;;;;;;7.40;4.03;;;12.70;83.70;;;;;;4975235;28;20034;-78
2023/03/20 12:15:55;;;;;;;7.07;4.07;;;12.80;83.80;;;;;;4976422;28;20405;-79
2023/03/20 12:18:25;;;;;;;6.90;3.95;;;12.80;83.80;;;;;;4975297;28;20030;-78
2023/03/20 12:21:13;;;;;;;6.70;3.80;;;12.70;83.80;;;;;;4974376;28;20034;-78
2023/03/20 12:24:09;;;;;;;7.65;3.80;;;12.70;83.70;;;;;;4974277;28;20019;-78
2023/03/20 12:26:57;;;;;;;7.00;3.88;;;12.70;83.70;;;;;;4956811;28;20030;-78
2023/03/20 12:29:26;;;;;;;6.95;4.00;;;12.70;83.80;;;;;;4975723;28;20027;-79
2023/03/20 12:32:05;;;;;;;6.30;3.40;;;12.70;83.80;;;;;;4973688;28;20181;-78
2023/03/20 12:34:45;;;;;;;6.88;4.05;;;12.70;83.80;;;;;;4974184;28;20022;-78
2023/03/20 12:37:12;;;;;;;6.85;3.92;;;12.70;83.90;;;;;;4973032;28;20175;-78
2023/03/20 12:39:46;;;;;;;7.25;3.97;;;12.70;83.90;;;;;;4973763;28;20034;-78
2023/03/20 12:42:50;;;;;;;7.35;3.90;;;12.70;84.00;;;;;;4974192;28;20542;-78
2023/03/20 12:45:20;;;;;;;6.88;3.88;;;12.70;84.00;;;;;;4943987;28;20038;-79
2023/03/20 12:48:04;;;;;;;6.47;3.58;;;12.70;84.10;;;;;;4974453;28;20037;-78
2023/03/20 12:50:46;;;;;;;7.45;3.92;;;12.60;84.00;;;;;;4956827;28;20042;-78
2023/03/20 12:53:38;;;;;;;6.50;3.65;;;12.70;84.10;;;;;;4975297;28;20023;-79
2023/03/20 12:56:41;;;;;;;6.80;3.50;;;12.60;84.10;;;;;;4973670;28;20481;-78
2023/03/20 12:59:19;;;;;;;6.03;3.50;;;12.60;84.10;;;;;;4956493;28;20027;-78
2023/03/20 13:01:45;;;;;;;6.88;3.75;;;12.60;84.10;;;;;;4972804;28;20031;-78
2023/03/20 13:04:38;;;;;;;7.20;3.67;;;12.70;84.20;;;;;;4957098;28;20030;-78
2023/03/20 13:07:16;;;;;;;6.40;3.95;;;12.60;84.20;;;;;;4957616;28;20023;-79
2023/03/20 13:10:09;;;;;;;6.60;3.47;;;12.60;84.20;;;;;;4957220;28;20027;-78
2023/03/20 13:12:56;;;;;;;6.30;3.38;;;12.60;84.20;;;;;;4974045;28;20074;-78
2023/03/20 13:15:50;;;;;;;6.22;3.55;;;12.60;84.20;;;;;;4974288;28;20027;-79
2023/03/20 13:18:53;;;;;;;5.95;3.42;;;12.60;84.20;;;;;;4973274;28;20034;-78
2023/03/20 13:21:32;;;;;;;6.82;3.80;;;12.60;84.30;;;;;;4948794;28;20089;-78
2023/03/20 13:24:16;;;;;;;6.15;3.20;;;12.60;84.30;;;;;;4972628;28;20389;-79
2023/03/20 13:26:57;;;;;;;6.63;3.63;;;12.60;84.30;;;;;;4973440;28;20019;-78
2023/03/20 13:29:52;;;;;;;6.38;3.50;;;12.60;84.40;;;;;;4973003;28;20086;-78
2023/03/20 13:32:29;;;;;;;6.47;3.20;;;12.60;84.40;;;;;;4971668;28;20042;-78
2023/03/20 13:35:24;;;;;;;5.60;3.05;;;12.60;84.40;;;;;;4956107;28;20035;-78
2023/03/20 13:37:55;;;;;;;6.35;3.50;;;12.60;84.40;;;;;;4973383;28;20058;-79
2023/03/20 13:40:24;;;;;;;6.65;3.50;;;12.50;84.40;;;;;;4971942;28;20057;-77
2023/03/20 13:42:53;;;;;;;6.38;3.30;;;12.50;84.40;;;;;;4972779;28;20051;-78
2023/03/20 13:45:32;;;;;;;6.25;3.40;;;12.50;84.40;;;;;;4956074;28;20050;-78
2023/03/20 13:48:04;;;;;;;6.18;2.90;;;12.50;84.40;;;;;;4973665;28;20063;-78
2023/03/20 13:50:32;;;;;;;;;;;12.50;84.40;;;;;;4973382;28;20054;-78
2023/03/20 13:53:08;;;;;;;5.07;2.80;;;12.50;84.40;;;;;;4974062;28;19913;-79
2023/03/20 13:55:47;;;;;;;6.03;3.03;;;12.50;84.50;;;;;;4973262;28;20026;-78
2023/03/20 13:58:47;;;;;;;6.00;3.20;;;12.50;84.40;;;;;;4971347;28;20027;-77
2023/03/20 14:01:46;;;;;;;5.65;2.90;;;12.50;84.50;;;;;;4975333;28;20031;-79
2023/03/20 14:04:20;;;;;;;5.85;3.10;;;12.50;84.40;;;;;;4981900;28;20026;-79
2023/03/20 14:06:50;;;;;;;6.18;3.03;;;12.50;84.40;;;;;;4982233;28;20037;-79
2023/03/20 14:09:25;;;;;;;6.05;3.05;;;12.50;84.50;;;;;;4979600;28;20023;-79
2023/03/20 14:11:54;;;;;;;5.63;3.00;;;12.50;84.40;;;;;;4979609;28;20400;-79
2023/03/20 14:14:31;;;;;;;5.50;2.90;;;12.50;84.40;;;;;;4980226;28;20050;-78
2023/03/20 14:17:05;;;;;;;6.00;2.78;;;12.60;84.50;;;;;;4979856;28;20061;-79
2023/03/20 14:19:33;;;;;;;5.53;2.78;;;12.50;84.40;;;;;;4979728;28;20120;-79
2023/03/20 14:21:59;;;;;;;5.55;2.75;;;12.50;84.40;;;;;;4979230;28;20386;-79
2023/03/20 14:24:26;;;;;;;5.78;3.17;;;12.50;84.40;;;;;;4979491;28;20023;-79
2023/03/20 14:26:56;;;;;;;5.55;3.05;;;12.50;84.40;;;;;;4979103;28;20023;-79
2023/03/20 14:29:28;;;;;;;5.20;2.63;;;12.50;84.40;;;;;;4978722;28;20050;-79
2023/03/20 14:32:04;;;;;;;6.15;2.90;;;12.50;85.00;;;;;;4962129;28;20405;-79
2023/03/20 14:34:47;;;;;;;6.78;3.03;;;12.50;84.40;;;;;;4979711;28;20054;-79
2023/03/20 14:37:26;;;;;;;5.13;2.90;;;12.50;84.50;;;;;;4977606;28;20031;-79
2023/03/20 14:40:03;;;;;;;5.65;3.03;;;12.50;84.50;;;;;;4977634;28;20038;-79
2023/03/20 14:42:38;;;;;;;5.13;2.63;;;12.50;84.50;;;;;;4961245;28;20080;-78
2023/03/20 14:45:28;;;;;;;5.88;2.78;;;12.60;84.60;;;;;;4977181;28;20019;-79
2023/03/20 14:48:24;;;;;;;5.90;3.15;;;12.50;84.50;;;;;;4977544;28;20018;-79
2023/03/20 14:51:19;;;;;;;4.90;2.50;;;12.50;84.50;;;;;;4978110;28;20023;-79
2023/03/20 14:53:55;;;;;;;5.53;2.75;;;12.50;84.50;;;;;;4978932;28;20504;-79
2023/03/20 14:56:27;;;;;;;4.82;2.72;;;12.50;84.60;;;;;;4981081;28;20023;-79
2023/03/20 14:59:05;;;;;;;5.72;2.97;;;12.50;84.60;;;;;;4980061;28;20030;-79
2023/03/20 15:01:36;;;;;;;4.95;2.80;;;12.50;85.10;;;;;;4979892;28;20027;-79
2023/03/20 15:04:25;;;;;;;4.93;2.55;;;12.50;84.60;;;;;;4962846;28;20029;-79
2023/03/20 15:07:01;;;;;;;5.60;3.00;;;12.50;84.60;;;;;;4980373;28;20497;-79
2023/03/20 15:09:31;;;;;;;5.32;2.72;;;12.50;84.70;;;;;;4978528;28;20173;-79
2023/03/20 15:12:03;;;;;;;5.03;2.72;;;12.50;84.70;;;;;;4979226;28;20030;-79
2023/03/20 15:14:51;;;;;;;5.20;2.70;;;12.50;84.60;;;;;;4978448;28;20035;-79
2023/03/20 15:17:22;;;;;;;5.70;3.03;;;12.50;84.70;;;;;;4964665;28;20031;-79
2023/03/20 15:19:48;;;;;;;5.70;2.83;;;12.50;84.70;;;;;;4978661;28;20034;-78
2023/03/20 15:22:17;;;;;;;5.82;2.97;;;12.50;84.70;;;;;;4978567;28;20023;-78
2023/03/20 15:24:51;;;;;;;5.50;2.88;;;12.40;84.70;;;;;;4976607;28;20022;-79
2023/03/20 15:27:17;;;;;;;5.35;2.80;;;12.40;84.70;;;;;;4976277;28;20023;-78
2023/03/20 15:29:48;;;;;;;5.38;2.97;;;12.50;84.70;;;;;;4977315;28;20081;-79
2023/03/20 15:32:14;;;;;;;5.00;2.63;;;12.40;84.70;;;;;;4977667;28;20077;-79
2023/03/20 15:34:41;;;;;;;6.07;2.80;;;12.40;84.70;;;;;;4976379;28;20031;-79
2023/03/20 15:37:13;;;;;;;6.22;3.03;;;12.40;84.70;;;;;;4976934;28;20031;-79
2023/03/20 15:39:50;;;;;;;5.07;2.78;;;12.40;84.80;;;;;;4975164;28;20053;-78
2023/03/20 15:42:19;;;;;;;4.95;2.78;;;12.40;84.80;;;;;;4975631;28;20026;-78
2023/03/20 15:44:46;;;;;;;5.75;2.88;;;12.40;84.80;;;;;;4976175;28;20022;-78
2023/03/20 15:47:21;;;;;;;5.28;2.70;;;12.40;84.80;;;;;;4976799;28;20505;-79
2023/03/20 15:50:03;;;;;;;5.53;2.92;;;12.40;84.70;;;;;;4975489;28;20035;-78
2023/03/20 15:52:39;;;;;;;4.95;2.78;;;12.40;84.80;;;;;;4975518;28;20031;-78
2023/03/20 15:55:17;;;;;;;4.95;2.90;;;12.40;84.80;;;;;;4976574;28;20041;-78
2023/03/20 15:57:46;;;;;;;5.50;3.13;;;12.40;84.80;;;;;;4974033;28;20031;-78
2023/03/20 16:00:32;;;;;;;4.65;2.58;;;12.40;84.80;;;;;;5006699;23;20038;-81
2023/03/20 16:03:01;;;;;;;5.18;2.80;;;12.40;84.80;;;;;;4994119;28;20027;-83